»·PEaware :: N734BT KCRQ-KMYF

N734BT :: KCRQ-KMYF

FLIGHT INFORMATION

Flight Status: Arrived
Operator: Privately registered:
United States
More flights under this callsign
Pilot: Frank A. (981)
Aircraft: CESSNA 172 SKYHAWK
(C172)
More flights by this aircraft type
Origin: KCRQ McClellan-Palomar
United States
Destination: KMYF Montgomery
United States
More flights between these airports :: More routes between these airports
Route: MZB
File this flight plan on PilotEdge
Remarks: request RNAV 28R
Altitude:
(Current/Filed)
4,000ft
Speed:
(Current/Filed)
110kts
Departed: 05-Sep-21 04:35 PM
Arrived: 05-Sep-21 05:11 PM
Distance/Time
Traveled:
20nm/0:36
Distance/Time
To Go:
Arrived

Flight Plot

Page will automatically refresh every two minutes.


Map Options




Map Legend


Flown Route
Filed Route
Departure Airport
Arrival Airport
Navaid (VOR, NDB)
Fix

Horizontal Profiles

Position Reports

Time Latitude Longitude Heading Altitude Ground
Speed
05-Sep-21 16:23 33.128115 -117.273755 225 323ft 0kts
05-Sep-21 16:24 33.128115 -117.273755 225 323ft 0kts
05-Sep-21 16:25 33.128113 -117.273759 235 323ft 0kts
05-Sep-21 16:26 33.128113 -117.273759 235 323ft 0kts
05-Sep-21 16:27 33.128113 -117.273759 235 323ft 0kts
05-Sep-21 16:28 33.128113 -117.273759 235 323ft 0kts
05-Sep-21 16:29 33.128113 -117.273759 235 323ft 0kts
05-Sep-21 16:30 33.128729 -117.272421 353 326ft 0kts
05-Sep-21 16:31 33.128729 -117.272421 353 326ft 0kts
05-Sep-21 16:32 33.128729 -117.272421 353 326ft 0kts
05-Sep-21 16:33 33.128813 -117.272432 356 327ft 10kts
05-Sep-21 16:34 33.126605 -117.290783 261 863ft 72kts
05-Sep-21 16:35 33.124034 -117.316202 261 1590ft 90kts
05-Sep-21 16:36 33.121120 -117.348349 261 2195ft 101kts
05-Sep-21 16:37 33.118231 -117.382424 261 2791ft 103kts
05-Sep-21 16:38 33.114929 -117.419127 261 2998ft 123kts
05-Sep-21 16:39 33.111184 -117.460972 261 2995ft 128kts
05-Sep-21 16:40 33.103497 -117.501173 210 2998ft 125kts
05-Sep-21 16:41 33.084739 -117.476954 107 3476ft 116kts
05-Sep-21 16:42 33.077279 -117.440306 107 3966ft 112kts
05-Sep-21 16:43 33.069658 -117.403022 107 4198ft 125kts
05-Sep-21 16:44 33.061142 -117.361400 107 4199ft 130kts
05-Sep-21 16:45 33.052478 -117.318944 107 4199ft 132kts
05-Sep-21 16:46 33.043723 -117.276072 107 4199ft 134kts
05-Sep-21 16:47 33.025881 -117.238646 130 4199ft 130kts
05-Sep-21 16:48 33.004306 -117.204335 130 4198ft 130kts
05-Sep-21 16:49 32.982700 -117.169966 131 4198ft 126kts
05-Sep-21 16:50 32.961822 -117.136825 131 4198ft 124kts
05-Sep-21 16:51 32.941151 -117.104035 131 4200ft 124kts
05-Sep-21 16:52 32.920442 -117.071209 131 4204ft 123kts
05-Sep-21 16:53 32.899874 -117.038634 131 4206ft 123kts
05-Sep-21 16:54 32.879199 -117.005921 131 4209ft 123kts
05-Sep-21 16:55 32.858712 -116.973533 130 4209ft 122kts
05-Sep-21 16:56 32.838273 -116.941248 130 4207ft 121kts
05-Sep-21 16:57 32.817984 -116.909230 129 4204ft 120kts
05-Sep-21 16:58 32.797878 -116.877526 129 4200ft 119kts
05-Sep-21 16:59 32.774221 -116.853125 182 4201ft 117kts
05-Sep-21 17:00 32.744170 -116.867759 208 4203ft 118kts
05-Sep-21 17:01 32.723422 -116.894782 270 4141ft 127kts
05-Sep-21 17:02 32.735242 -116.934232 290 3644ft 123kts
05-Sep-21 17:03 32.748818 -116.968941 290 3588ft 115kts
05-Sep-21 17:04 32.763603 -117.006315 291 2819ft 114kts
05-Sep-21 17:05 32.774873 -117.034936 289 2288ft 90kts
05-Sep-21 17:06 32.785868 -117.062764 290 1766ft 94kts
05-Sep-21 17:07 32.796439 -117.089545 289 1271ft 83kts
05-Sep-21 17:08 32.805937 -117.113669 290 845ft 84kts
05-Sep-21 17:09 32.815080 -117.136945 294 427ft 46kts
05-Sep-21 17:10 32.815502 -117.141637 232 427ft 17kts
05-Sep-21 17:11 32.812142 -117.137646 205 427ft 22kts
05-Sep-21 17:12 32.811151 -117.138993 169 427ft 0kts
05-Sep-21 17:13 32.811151 -117.138993 169 427ft 0kts

Navigation Log

Ident Type
Flight plan parsing failed, navigation log unavailable